aviador You're here:

CYCS Decoded Metar

CHESTERFIELD INLET in NU, CANADA
Report Time2017-06-29 12:00:00
UTC Time2017-06-29 12:23:25
Flight Rules mvfr MVFR
Wind030° at 04 kt
W.Decomp.*RWY 12: 0.7 kt HW 3.9 kt LCW
W.Rank030° ranks 13
Current wind is below 030° avg. (12.0)
Visibility4828 m
Phenomena:Fog
Clouds:Few 280 Hf
Expected CloudBase > 800 ft AGL from Temp-Dew spread
CeilingNone
Temp08°C (ISA -7)
Dew Point06°C (87% RH)
AAT5.6°C
QNH1022 hPa
Density Alt-974 ft
Elevation36 ft
Report Wrong Elevation
Raw Report
CYCS 291200Z 03004KT 3SM VCFG FEW280 08/06 A3017 RMK CI1 FG OVR
BAY 15.3/6.1/0/NIL SLP218=

Extra information for CYCS:More info

Metar Taf Metar & Taf Last 4 Metars F.Rules Stats Wind Profile Meteogram Temp Stats Airport Information Weather charts Add Link Nearby VenuesMetar ALERT Operation Metar Decoded Social comments